x

8419317 - Wells, Me (welm1) Weather Station

4:18 - Sat 19th Aug 2017 All times are EDT. -4 hours from GMT.

  • Wind
    8mph, 10mph gusts
  • Sea Temp 62°f
  • Aire Temp 62°f
  • Sea Pressure 1008.2mb
  • 8419317 - Wells, Me
  • 8419317 - Wells, Me

More Historic Weather Station data

Upgrade to MSW Pro to gain access to the past 30 days of data for over 8000 Wavebouys and Weather Stations around the globe.

Join

Comparision Forecast

View Surf forecast
   
sáb 08/19 4:18 8 10 mph 1008.2mb 62f 62f
4:12 7 9 mph 1008.3mb 62f 62f
4:06 7 9 mph 1008.4mb 62f 62f
4:00 7 8 mph 1008.4mb 62f 62f
3:54 6 7 mph 1008.3mb 62f 62f
3:48 6 7 mph 1008.4mb 62f 62f
3:42 5 7 mph 1008.5mb 62f 62f
3:36 6 7 mph 1008.7mb 62f 62f
3:30 6 7 mph 1008.7mb 61f 62f
3:24 5 7 mph 1008.7mb 61f 62f
3:18 6 7 mph 1008.7mb 61f 62f
3:12 6 7 mph 1008.7mb 61f 62f
3:06 5 7 mph 1008.6mb 61f 62f
3:00 5 7 mph 1008.5mb 61f 62f
2:48 6 7 mph 1008.6mb 61f -
2:42 5 9 mph 1008.6mb 61f -
2:36 7 11 mph 1008.6mb 61f -
2:30 7 9 mph 1008.6mb 61f 62f
2:24 6 8 mph 1008.9mb 61f 62f
2:18 6 9 mph 1008.8mb 61f 62f
2:12 6 11 mph 1008.8mb 61f 62f
2:06 9 13 mph 1008.7mb 61f 62f
2:00 7 9 mph 1008.8mb 61f 62f
1:54 8 10 mph 1008.9mb 61f 62f
1:48 7 9 mph 1009mb 61f 62f
1:42 7 9 mph 1009.1mb 61f 62f
1:36 9 10 mph 1009mb 61f 62f
1:30 10 11 mph 1009mb 61f 62f
1:24 7 11 mph 1009.1mb 61f 62f
1:18 9 13 mph 1009mb 61f 62f
1:12 8 11 mph 1009.2mb 61f 62f
1:06 8 9 mph 1009.1mb 61f 62f
1:00 6 9 mph 1009.2mb 61f 63f
12:54 7 8 mph 1009.2mb 61f 63f
12:48 6 7 mph 1009.2mb 61f 63f
12:42 5 9 mph 1009.1mb 61f 63f
12:36 6 7 mph 1009.3mb 61f 63f
12:30 7 8 mph 1009.5mb 61f 63f
12:24 8 9 mph 1009.7mb 61f 63f
12:18 6 8 mph 1009.9mb 61f 63f
12:12 6 9 mph 1009.9mb 60f 63f
12:06 8 10 mph 1009.8mb 60f 63f
12:00 7 10 mph 1009.8mb 60f 63f
vie 08/18 11:54 10 13 mph 1009.7mb 60f 63f
11:48 8 10 mph 1009.8mb 60f 63f
11:42 6 9 mph 1009.6mb 60f 63f
11:36 6 8 mph 1009.5mb 60f 63f
11:30 8 9 mph 1009.6mb 60f 63f
11:24 7 11 mph 1009.4mb 60f 63f
11:18 11 13 mph 1009.5mb 60f 63f
11:12 9 10 mph 1009.6mb 60f 63f
11:06 8 10 mph 1009.9mb 60f 64f
11:00 9 13 mph 1009.8mb 60f 64f
10:54 10 14 mph 1009.8mb 60f 64f
10:48 10 14 mph 1009.8mb 60f 64f
10:42 9 10 mph 1009.9mb 60f 64f
10:36 7 8 mph 1009.7mb 60f 64f
10:30 7 10 mph 1009.6mb 60f 64f
10:24 9 13 mph 1009.8mb 60f 64f
10:18 9 11 mph 1009.8mb 60f 65f
10:12 8 13 mph 1009.7mb 60f 65f
10:06 11 14 mph 1009.6mb 60f 65f
10:00 7 9 mph 1009.7mb 60f 66f
9:54 6 7 mph 1009.4mb 60f 65f
9:48 1 3 mph 1009.3mb 60f 66f
9:42 3 7 mph 1009.4mb 60f 66f
9:36 3 6 mph 1009.4mb 60f 66f
9:30 1 2 mph 1009.5mb 60f 66f
9:24  -  1 mph 1009.7mb 60f 66f
9:18  -  2 mph 1009.7mb 60f 66f
9:12 2 2 mph 1009.7mb 60f 65f
9:06 2 3 mph 1009.7mb 60f 66f
9:00 1 2 mph 1009.8mb 60f 66f
8:54  -  1 mph 1009.8mb 60f 66f
8:48 2 3 mph 1009.8mb 60f 66f
8:42 3 5 mph 1009.6mb 60f 67f
8:36 3 5 mph 1009.7mb 60f 67f
8:30 2 2 mph 1009.8mb 60f 66f
8:24 1 3 mph 1009.9mb 60f 67f
8:18 2 3 mph 1009.9mb 60f 67f
8:12 3 3 mph 1009.9mb 60f 66f
8:06 2 3 mph 1010mb 60f 66f
8:00  -  0 mph 1010.1mb 60f 66f
7:54  -  1 mph 1010.1mb 60f 66f
7:48  -  1 mph 1010.1mb 60f 66f
7:42  -  1 mph 1010mb 60f 66f
7:36  -  2 mph 1010.1mb 60f 66f
7:30 2 3 mph 1010.2mb 60f 66f
7:24 2 3 mph 1010.2mb 60f 66f
7:18 2 3 mph 1010.3mb 60f 66f
7:12 3 5 mph 1010.3mb 60f 66f
7:06 3 6 mph 1010.2mb 60f 66f
7:00 5 5 mph 1010.2mb 60f 65f
6:54 5 6 mph 1010.1mb 60f 65f
6:48 5 6 mph 1010.2mb 60f 66f
6:42 5 7 mph 1010.2mb 60f 66f
6:36 3 5 mph 1010.3mb 60f 66f
6:30 3 5 mph 1010.4mb 60f 66f
6:24 5 5 mph 1010.5mb 60f 66f
6:18 5 5 mph 1010.5mb 60f 66f
6:12 3 3 mph 1010.6mb 60f 66f
6:06 3 5 mph 1010.6mb 60f 66f
6:00 3 5 mph 1010.6mb 60f 66f
5:54 2 3 mph 1010.6mb 60f 66f
5:48 3 5 mph 1010.5mb 60f 65f
5:42 2 3 mph 1010.5mb 60f 65f
5:36 2 3 mph 1010.5mb 60f 65f
5:30 2 2 mph 1010.5mb 60f 66f
5:24  -  1 mph 1010.6mb 60f 66f
5:18  -  1 mph 1010.7mb 60f 65f
5:12 1 3 mph 1010.5mb 60f 65f
5:06 2 2 mph 1010.5mb 60f 65f
5:00 1 2 mph 1010.6mb 60f 65f
4:54 1 2 mph 1010.6mb 60f 65f
4:48 1 2 mph 1010.7mb 60f 65f
4:42  -  2 mph 1010.8mb 60f 65f
4:36 1 2 mph 1010.9mb 60f 65f
4:30 2 5 mph 1010.9mb 60f 65f
4:24 2 5 mph 1011mb 60f 65f
4:18 3 5 mph 1011.1mb 60f 65f
4:12 2 6 mph 1011.1mb 60f 66f
4:06 5 8 mph 1011.1mb 60f 66f
4:00 6 8 mph 1011.3mb 60f 66f
3:54 6 9 mph 1011.4mb 60f 66f
3:48 6 8 mph 1011.5mb 60f 67f
3:42 6 10 mph 1011.5mb 60f 66f
3:36 9 13 mph 1011.6mb 60f 67f
3:30 10 13 mph 1011.7mb 60f 66f
3:24 7 8 mph 1011.8mb 60f 66f
3:18 6 8 mph 1011.8mb 60f 66f
3:12 3 8 mph 1011.9mb 60f 67f
3:06 5 9 mph 1011.9mb 60f 67f
3:00 6 8 mph 1012.1mb 60f 67f
2:54 3 7 mph 1012mb 60f 67f
2:48 5 14 mph 1012mb 60f 66f
2:42 5 13 mph 1012mb 60f 67f
2:36 3 10 mph 1012mb 60f 66f
2:30 6 14 mph 1012mb 60f 66f
2:24 5 16 mph 1012.2mb 60f 66f
2:18 9 14 mph 1012.3mb 60f 65f
2:12 2 9 mph 1012.4mb 60f 65f
2:06 3 24 mph 1012.4mb 60f 65f
2:00 7 11 mph 1012.3mb 60f 65f
1:54 2 6 mph 1012.6mb 60f 64f
1:48 7 13 mph 1012.5mb 59f 64f
1:42 5 14 mph 1012.4mb 59f 64f
1:36 10 14 mph 1012.5mb 59f 64f
1:30 9 11 mph 1012.5mb 59f 64f
1:24 6 10 mph 1012.6mb 59f 64f
1:18 8 10 mph 1012.5mb 59f 64f
1:12 8 13 mph 1012.7mb 59f 64f
1:06 11 14 mph 1012.6mb 59f 64f
1:00 13 15 mph 1012.7mb 59f 64f
12:54 13 16 mph 1012.8mb 59f 64f
12:48 13 16 mph 1013mb 58f 64f
12:42 11 14 mph 1013.2mb 58f 64f
12:36 11 15 mph 1013.2mb 58f 64f
12:30 11 14 mph 1013.2mb 58f 64f
12:24 8 10 mph 1013.6mb 58f 63f
12:18 7 9 mph 1013.9mb 58f 64f
12:12 7 9 mph 1014mb 58f 64f
12:06 8 9 mph 1013.7mb 58f 64f
12:00 6 7 mph 1013.8mb 58f 64f
11:54 5 7 mph 1014.1mb 58f 64f
11:48 5 7 mph 1014.1mb 58f 65f
11:42 6 7 mph 1014.1mb 58f 65f
11:36 7 8 mph 1014.4mb 58f 65f
11:30 6 8 mph 1014.5mb 58f 65f
11:24 6 7 mph 1014.5mb 58f 65f
11:18 6 7 mph 1014.3mb 58f 65f
11:12 6 7 mph 1014.2mb 58f 65f
11:06 5 5 mph 1014.2mb 58f 65f
11:00 5 6 mph 1014.2mb 58f 65f
10:54 6 8 mph 1014.3mb 58f 65f
10:48 7 9 mph 1014.2mb 57f 65f
10:42 7 8 mph 1014.3mb 57f 64f
10:36 7 8 mph 1014.4mb 57f 64f
10:30 7 9 mph 1014.3mb 57f 64f
10:24 7 8 mph 1014.2mb 57f 64f
10:18 5 7 mph 1014.2mb 57f 64f
10:12 5 7 mph 1014.2mb 57f 64f
10:06 6 7 mph 1014mb 57f 64f
10:00 6 8 mph 1014mb 57f 64f
9:54 6 7 mph 1014.2mb 57f 65f
9:48 6 6 mph 1014.4mb 57f 65f
9:42 3 5 mph 1014.4mb 57f 65f
9:36 2 3 mph 1014.6mb 57f 65f
9:30 3 5 mph 1014.7mb 57f 65f
9:24 3 3 mph 1014.7mb 57f 65f
9:18 3 3 mph 1014.8mb 57f 65f
9:12 2 3 mph 1014.8mb 57f 65f
9:06 2 3 mph 1014.7mb 57f 65f
9:00 1 3 mph 1014.7mb 57f 64f
8:54 3 5 mph 1014.6mb 57f 65f
8:48 2 3 mph 1014.7mb 57f 65f
8:42 2 5 mph 1014.7mb 57f 65f
8:36 2 3 mph 1014.7mb 57f 64f
8:30 2 3 mph 1014.7mb 57f 64f
8:24 3 6 mph 1014.7mb 57f 64f
8:18 3 5 mph 1014.6mb 57f 64f
8:12 3 3 mph 1014.6mb 57f 64f
8:06 2 3 mph 1014.8mb 57f 64f
8:00 1 2 mph 1014.9mb 57f 64f
7:54 1 1 mph 1014.9mb 57f 63f
7:48 1 2 mph 1015mb 57f 63f
7:42 1 2 mph 1014.8mb 57f 63f
7:36  -  2 mph 1014.8mb 57f 63f
7:30  -  2 mph 1014.9mb 57f 63f
7:24 2 3 mph 1014.8mb 57f 63f
7:18 2 3 mph 1014.7mb 57f 63f
7:12 2 3 mph 1014.7mb 57f 63f
7:06 2 3 mph 1014.7mb 57f 63f
7:00 2 3 mph 1014.7mb 57f 63f
6:54 3 3 mph 1014.6mb 57f 63f
6:48 2 5 mph 1014.6mb 57f 63f
6:42 2 3 mph 1014.6mb 57f 63f
6:36 2 3 mph 1014.6mb 57f 63f
6:30 2 3 mph 1014.6mb 57f 63f
6:24 3 5 mph 1014.6mb 57f 63f
6:18 3 6 mph 1014.6mb 57f 63f
6:12 5 6 mph 1014.5mb 57f 63f
6:06 5 6 mph 1014.5mb 57f 63f
6:00 5 5 mph 1014.5mb 57f 62f
5:54 5 6 mph 1014.6mb 57f 63f
5:48 5 6 mph 1014.6mb 58f 62f
5:42 5 6 mph 1014.7mb 58f 62f
5:36 5 6 mph 1014.6mb 58f 63f
5:30 5 6 mph 1014.6mb 58f 62f
5:24 5 6 mph 1014.6mb 59f 62f
5:18 5 6 mph 1014.5mb 60f 62f
5:12 6 6 mph 1014.6mb 60f 62f
5:06 6 6 mph 1014.5mb 60f 62f
5:00 6 7 mph 1014.6mb 61f 62f
4:54 6 6 mph 1014.6mb 61f 62f
4:48 2 3 mph 1014.6mb 61f 61f
4:42 3 5 mph 1014.6mb 61f 62f
4:36 5 5 mph 1014.7mb 61f 62f
4:30 3 3 mph 1014.9mb 61f 62f
4:24 3 5 mph 1014.9mb 61f 61f
4:18 3 5 mph 1015mb 60f 61f
4:12 3 3 mph 1015mb 60f 61f
4:06 3 5 mph 1015.1mb 60f 62f
4:00 3 3 mph 1015.2mb 60f 62f
3:54 5 6 mph 1015.2mb 60f 62f
3:48 3 5 mph 1015mb 60f 61f
3:42 5 5 mph 1015.2mb 60f 61f
3:36 3 3 mph 1015.2mb 60f 62f
3:30 2 2 mph 1015.3mb 60f 61f
3:24 1 2 mph 1015.4mb 60f 61f
3:18 2 3 mph 1015.5mb 60f 61f
3:12 2 2 mph 1015.3mb 60f 61f
3:06 2 3 mph 1015.3mb 59f 61f
3:00 3 3 mph 1015.3mb 59f 61f
2:54 3 3 mph 1015.3mb 59f 61f
2:48 1 2 mph 1015.4mb - -
2:42 1 1 mph 1015.3mb - -
2:36  -  2 mph 1015.4mb - -
2:30 2 3 mph 1015.4mb 59f 60f
2:24 3 3 mph 1015.4mb 59f 61f
2:18 3 5 mph 1015.4mb 59f 62f
2:12 3 5 mph 1015.4mb 59f 62f
2:06 3 3 mph 1015.6mb 59f 61f
2:00 3 3 mph 1015.6mb 59f 62f
1:54 2 2 mph 1015.8mb 59f 62f
1:48 2 2 mph 1015.7mb 59f -
1:42 2 3 mph 1015.7mb 58f -
1:36 1 2 mph 1015.7mb 58f -
1:30 1 3 mph 1015.6mb 58f 61f
1:24 3 5 mph 1015.6mb 58f 62f
1:18 3 5 mph 1015.6mb 58f 62f
1:12 5 5 mph 1015.6mb 58f 61f
1:06 3 3 mph 1015.7mb 59f 61f
1:00 3 3 mph 1015.8mb 59f 62f
12:54 3 3 mph 1015.8mb 59f 60f
12:48 3 3 mph 1015.8mb 59f 61f
12:42 2 2 mph 1015.8mb 59f 61f
12:36  -  2 mph 1015.9mb 59f 62f
12:30 2 3 mph 1015.9mb 59f 62f
12:24 1 2 mph 1015.9mb 58f 61f
12:18 3 3 mph 1015.9mb 58f 61f
12:12 1 1 mph 1015.9mb 58f 61f
12:06  -  2 mph 1016mb 58f 62f
12:00 1 2 mph 1016mb 58f 62f
jue 08/17 11:54 2 5 mph 1015.8mb 58f 62f
11:48 3 5 mph 1015.8mb 57f 61f
11:42 1 2 mph 1015.7mb 58f 63f
11:36  -  2 mph 1015.6mb 57f 63f
11:30 1 2 mph 1015.7mb 57f 63f
11:24 2 3 mph 1015.7mb 57f 63f
11:18 1 2 mph 1015.8mb 57f 64f
11:12 2 2 mph 1015.7mb 57f 65f
11:06  -  5 mph 1015.7mb 57f 63f
11:00 6 7 mph 1015.7mb 57f 64f
10:54 1 3 mph 1015.7mb 57f 65f
10:48 2 3 mph 1015.6mb 57f 66f
10:42 1 2 mph 1015.5mb 57f 66f
10:36 1 1 mph 1015.5mb 57f 66f
10:30  -  1 mph 1015.5mb 57f 66f
10:24 1 3 mph 1015.5mb 57f 66f
10:18 3 5 mph 1015.4mb 56f 67f
10:12 2 2 mph 1015.4mb 56f 67f
10:06 2 2 mph 1015.4mb 56f 66f
10:00 1 2 mph 1015.5mb 56f 66f
9:54 1 2 mph 1015.5mb 56f 66f
9:48 1 2 mph 1015.6mb 56f 66f
9:30 1 2 mph 1015.4mb 56f 66f
9:24 1 3 mph 1015.4mb 56f 67f
9:18 2 5 mph 1015.3mb 56f 67f
9:12 2 5 mph 1015.3mb 56f 70f
9:06 3 7 mph 1015.2mb 55f 72f
9:00 6 8 mph 1015.2mb 55f 72f
8:54 5 7 mph 1015.2mb 55f 72f
8:48 3 5 mph 1015.2mb 55f 71f
8:42 2 5 mph 1015.2mb 55f 71f
8:36 2 5 mph 1015.1mb 55f 69f
8:30 2 6 mph 1015mb 55f 67f
8:24 6 6 mph 1015mb 55f 70f
8:18 6 8 mph 1014.9mb 55f 73f
8:12 5 7 mph 1015mb 55f 73f
8:06 5 6 mph 1015mb 55f 73f
8:00 3 6 mph 1014.9mb 55f 74f
7:54 2 5 mph 1014.9mb 55f 74f
7:48 3 5 mph 1014.8mb 55f 73f
7:42 3 5 mph 1014.8mb 55f 74f
7:36 2 5 mph 1014.7mb 55f 75f
7:30 2 3 mph 1014.7mb 55f 75f
7:24 2 5 mph 1014.7mb 55f 75f
7:18 3 6 mph 1014.7mb 55f 75f
7:12 3 5 mph 1014.7mb 55f 76f
7:06 2 6 mph 1014.7mb 55f 76f
7:00 5 6 mph 1014.6mb 55f 76f
6:54 3 8 mph 1014.6mb 55f 76f
6:48 5 8 mph 1014.5mb 55f 77f
6:42 3 6 mph 1014.6mb 56f 77f
6:36 5 9 mph 1014.6mb 56f 77f
6:30 7 14 mph 1014.6mb 56f 77f
6:24 5 9 mph 1014.5mb 56f 77f
6:18 6 10 mph 1014.5mb 56f 77f
6:12 7 8 mph 1014.4mb 56f 78f
6:06 7 9 mph 1014.4mb 56f 78f
6:00 7 13 mph 1014.4mb 56f 78f
5:54 7 15 mph 1014.2mb 56f 78f
5:48 8 10 mph 1014.2mb 56f 78f
5:42 7 13 mph 1014.3mb 56f 78f
5:36 9 14 mph 1014.2mb 56f 78f
5:30 9 14 mph 1014.1mb 56f 78f
5:24 11 16 mph 1014.1mb 56f 78f
5:18 11 16 mph 1014.1mb 56f 79f
5:12 9 13 mph 1014.2mb 56f 79f
5:06 9 16 mph 1014.1mb 56f 79f
5:00 8 17 mph 1014.1mb 57f 79f
4:54 10 15 mph 1013.9mb 57f 79f
4:48 6 13 mph 1013.9mb 57f 79f
4:42 8 16 mph 1013.8mb 57f 79f
4:36 10 15 mph 1013.9mb 57f 79f
4:30 10 17 mph 1014mb 57f 79f
4:24 11 17 mph 1014mb 57f 79f
4:18 6 17 mph 1014mb 58f 80f
4:12 9 18 mph 1014.1mb 59f 79f
4:06 10 15 mph 1014.1mb 60f 80f
4:00 11 18 mph 1014.1mb 61f 79f
3:54 10 17 mph 1014mb 61f 79f
3:48 9 18 mph 1014.1mb 61f 79f
3:42 6 16 mph 1014.1mb 61f 80f
3:36 9 16 mph 1014mb 61f 79f
3:30 11 17 mph 1014.2mb 61f 79f
3:24 11 17 mph 1014.3mb 61f 80f
3:18 13 20 mph 1014.4mb 61f 79f
3:12 11 17 mph 1014.3mb 61f 79f
3:06 8 18 mph 1014.4mb 61f 79f
3:00 11 17 mph 1014.4mb 61f 78f
2:54 9 16 mph 1014.4mb 61f 79f
2:48 8 18 mph 1014.5mb 61f 79f
2:42 11 15 mph 1014.6mb 61f 79f
2:36 8 14 mph 1014.5mb 61f 79f
2:30 15 21 mph 1014.7mb 61f 78f
2:24 10 16 mph 1014.6mb 61f 78f
2:18 11 17 mph 1014.6mb 61f 78f
2:12 10 21 mph 1014.7mb 61f 78f
2:06 10 16 mph 1014.7mb 61f 78f
2:00 10 20 mph 1014.7mb 61f 78f
1:54 8 20 mph 1014.7mb 61f 78f
1:48 8 17 mph 1014.7mb 60f 78f
1:42 15 22 mph 1014.9mb 60f 78f
1:36 10 16 mph 1015mb 60f 78f
1:30 13 28 mph 1015mb 60f 77f
1:24 11 16 mph 1015mb 60f 78f
1:18 10 17 mph 1015.2mb 60f 78f
1:12 11 18 mph 1015.2mb 60f 76f
1:06 5 11 mph 1015.3mb 60f 77f
1:00 10 16 mph 1015.5mb 60f 76f
12:54 7 18 mph 1015.5mb 60f 76f
12:48 6 20 mph 1015.5mb 59f 77f
12:42 10 17 mph 1015.5mb 59f 76f
12:36 9 15 mph 1015.6mb 59f 76f
12:30 9 16 mph 1015.5mb 59f 76f
12:24 11 18 mph 1015.6mb 59f 76f
12:18 10 18 mph 1015.7mb 59f 75f
12:12 13 18 mph 1015.7mb 58f 75f
12:06 9 15 mph 1015.6mb 58f 76f
12:00 11 18 mph 1015.6mb 58f 75f
11:54 13 17 mph 1015.7mb 58f 75f
11:48 11 17 mph 1015.8mb 58f 75f
11:42 9 18 mph 1015.9mb 58f 75f
11:36 8 14 mph 1015.9mb 58f 74f
11:30 7 17 mph 1016mb 57f 74f
11:24 10 16 mph 1016.1mb 57f 74f
11:18 10 15 mph 1016.2mb 57f 73f
11:12 9 15 mph 1016.2mb 57f 73f
11:06 7 13 mph 1016.4mb 57f 73f
11:00 9 13 mph 1016.5mb 57f 73f
10:54 8 13 mph 1016.6mb 57f 72f
10:48 9 16 mph 1016.6mb 56f 73f
10:42 8 15 mph 1016.7mb 56f 72f
10:36 6 11 mph 1016.7mb 56f 72f
10:30 8 11 mph 1016.8mb 56f 72f
10:24 8 11 mph 1016.8mb 56f 71f
10:18 7 11 mph 1016.9mb 56f 71f
10:12 7 11 mph 1016.9mb 56f 70f
10:06 9 13 mph 1017mb 56f 69f
10:00 6 9 mph 1017.1mb 56f 69f
9:54 5 8 mph 1017.1mb 56f 69f
9:48 6 9 mph 1017.2mb 56f 68f
9:42 6 9 mph 1017.1mb 56f 68f
9:36 3 7 mph 1017.2mb 56f 68f
9:30 3 8 mph 1017.1mb 56f 68f
9:24 5 8 mph 1017.1mb 55f 67f
9:18 3 7 mph 1017mb 55f 67f
9:12 7 10 mph 1017mb 55f 67f
9:06 8 14 mph 1017mb 55f 66f
9:00 6 13 mph 1017mb 55f 67f
8:54 7 13 mph 1016.9mb 55f 66f
8:48 8 13 mph 1017mb 55f 65f
8:42 8 13 mph 1016.9mb 55f 65f
8:36 9 14 mph 1017mb 55f 64f
8:30 8 11 mph 1017.1mb 55f 64f
8:24 8 11 mph 1017.1mb 55f 64f
8:18 6 10 mph 1017.1mb 55f 63f
8:12 6 9 mph 1017.2mb 55f 63f
8:06 8 10 mph 1017.2mb 55f 62f
8:00 6 10 mph 1017.2mb 55f 62f
7:54 6 10 mph 1017.2mb 55f 62f
7:48 7 11 mph 1017.2mb 55f 61f
7:42 7 10 mph 1017.3mb 55f 61f
7:36 8 11 mph 1017.2mb 55f 61f
7:30 6 10 mph 1017.1mb 55f 60f
7:24 7 9 mph 1017.1mb 55f 60f
7:18 6 9 mph 1017mb 55f 60f
7:12 5 7 mph 1017mb 55f 60f
7:06 5 9 mph 1017.1mb 55f 59f
7:00 6 10 mph 1017.1mb 55f 59f
6:54 6 8 mph 1017mb 55f 59f
6:48 6 9 mph 1016.9mb 55f 59f
6:42 5 9 mph 1016.6mb 55f 58f
6:36 3 6 mph 1016.6mb 55f 57f
6:30  -  1 mph 1016.6mb 55f 57f
6:24 1 3 mph 1016.7mb 55f 56f
6:18 1 5 mph 1016.6mb 55f 56f
6:12 3 5 mph 1016.6mb 55f 56f
6:06 2 3 mph 1016.7mb 55f 56f
6:00 2 5 mph 1016.6mb 55f 56f
5:54 1 5 mph 1016.5mb 55f 56f
5:48 5 9 mph 1016.4mb 55f 56f
5:42 6 8 mph 1016.3mb 56f 55f
5:36 5 7 mph 1016.3mb 56f 55f
5:30 3 6 mph 1016.3mb 56f 55f
5:24 5 7 mph 1016.3mb 56f 55f
5:18 5 6 mph 1016.2mb 56f 55f
5:12 3 7 mph 1016.3mb 56f 56f
5:06 3 7 mph 1016.3mb 56f 56f
5:00 6 7 mph 1016.2mb 56f 56f
4:54 5 7 mph 1016.2mb 56f 56f
4:48 5 7 mph 1016.2mb 56f 57f
4:42 3 7 mph 1016.2mb 56f 56f
4:36 5 7 mph 1016.2mb 56f 56f
4:30 3 7 mph 1016.3mb 57f 56f
4:24 5 8 mph 1016.3mb 57f 57f
4:18 6 8 mph 1016.3mb 59f 57f
4:12 6 9 mph 1016.3mb 61f 56f
4:06 6 8 mph 1016.4mb 61f 56f
4:00 6 8 mph 1016.4mb 62f 56f
3:54 6 7 mph 1016.4mb 62f 55f
3:48 3 6 mph 1016.4mb 62f 55f
3:42 2 5 mph 1016.3mb 62f 55f
3:36 2 5 mph 1016.3mb 62f 55f
3:30  -  mph 1016.3mb 62f 56f
3:24  -  mph 1016.1mb 62f 56f
3:18 3 6 mph 1016.1mb 62f 56f
3:12 3 6 mph 1016mb 62f 57f
3:06 5 7 mph 1016mb 62f 58f
3:00 5 6 mph 1016.2mb 62f 58f
2:54 2 5 mph 1016.2mb 62f 57f
2:48 3 6 mph 1016.2mb 62f -
2:42 5 7 mph 1016.2mb 62f -
2:36 6 7 mph 1016.2mb 62f -
2:30 6 9 mph 1016.3mb 61f 59f
2:24 7 8 mph 1016.4mb 61f 59f
2:18 6 9 mph 1016.4mb 61f 59f
2:12 6 9 mph 1016.4mb 61f 59f
2:06 6 8 mph 1016.4mb 61f 60f
2:00 7 11 mph 1016.3mb 61f 60f
1:54 6 10 mph 1016.3mb 60f 59f
1:48 6 9 mph 1016.3mb 60f 59f
1:42 2 7 mph 1016.3mb 60f 57f
1:36  -  1 mph 1016.4mb 60f 57f
1:30 1 7 mph 1016.4mb 60f 58f
1:24 3 6 mph 1016.2mb 60f 56f
1:18 3 3 mph 1016.2mb 60f 56f
1:12 2 2 mph 1016.2mb 60f 56f
1:06 1 2 mph 1016.2mb 60f 57f
1:00 1 3 mph 1016.2mb 60f 57f
12:54 3 3 mph 1016.3mb 60f 58f
12:48  -  2 mph 1016.2mb 59f 59f
12:42 1 2 mph 1016.2mb 59f 60f
12:36 2 2 mph 1016.3mb 59f 59f
12:30 1 2 mph 1016.3mb 60f 60f
12:24 1 2 mph 1016.3mb 60f 59f
12:18 2 5 mph 1016.3mb 60f 59f
12:12 3 6 mph 1016.2mb 60f 59f
12:06 3 5 mph 1016.1mb 60f 60f
12:00 2 5 mph 1016.2mb 60f 60f
mié 08/16 11:54 2 5 mph 1016.2mb 60f 60f
11:48 3 3 mph 1016.3mb 60f 60f
11:42 3 5 mph 1016.3mb 59f 59f
11:36 3 6 mph 1016.2mb 59f 62f
11:30 5 7 mph 1016.1mb 58f 63f
11:24 6 7 mph 1016.1mb 58f 63f
11:18 6 7 mph 1016.1mb 58f 61f
11:12 6 7 mph 1016.1mb 58f 63f
11:06 6 7 mph 1016.1mb 58f 63f
11:00 6 7 mph 1016mb 58f 64f
10:54 6 8 mph 1016mb 58f 64f
10:48 6 8 mph 1016mb 57f 63f
10:42 7 8 mph 1016mb 57f 64f
10:36 6 8 mph 1015.9mb 56f 64f
10:30 6 7 mph 1016mb 57f 64f
10:24 5 6 mph 1016mb 57f 64f
10:18 5 6 mph 1016mb 58f 64f
10:12 5 7 mph 1016mb 57f 66f
10:06 6 7 mph 1015.9mb 57f 66f
10:00 5 7 mph 1015.8mb 57f 66f
9:54 6 7 mph 1015.7mb 57f 66f
9:48 7 7 mph 1015.7mb 56f 67f
9:42 7 7 mph 1015.6mb 56f 67f
9:36 7 8 mph 1015.5mb 56f 67f
9:30 7 8 mph 1015.4mb 56f 66f
9:24 7 9 mph 1015.3mb 56f 66f
9:18 7 10 mph 1015.3mb 56f 67f
9:12 8 10 mph 1015.2mb 56f 67f
9:06 8 9 mph 1015.2mb 56f 65f
9:00 9 9 mph 1015.2mb 55f 67f
8:54 8 8 mph 1015.3mb 55f 67f
8:48 8 8 mph 1015.1mb 55f 68f
8:42 7 9 mph 1015mb 55f 67f
8:36 7 7 mph 1015mb 55f 67f
8:30 5 7 mph 1015mb 55f 70f
8:24 6 8 mph 1014.9mb 55f 70f
8:18 6 8 mph 1014.8mb 55f 71f
8:12 6 8 mph 1014.7mb 55f 71f
8:06 7 9 mph 1014.7mb 55f 71f
8:00 6 8 mph 1014.5mb 55f 72f
7:54 5 8 mph 1014.3mb 55f 72f
7:48 6 8 mph 1014.2mb 55f 72f
7:42 6 9 mph 1014.2mb 55f 73f
7:36 6 9 mph 1014mb 55f 73f
7:30 6 8 mph 1013.9mb 55f 73f
7:24 5 10 mph 1013.8mb 55f 74f
7:18 6 10 mph 1013.8mb 55f 74f
7:12 8 11 mph 1013.7mb 55f 74f
7:06 7 10 mph 1013.6mb 55f 75f
7:00 7 11 mph 1013.5mb 55f 75f
6:54 8 13 mph 1013.4mb 55f 76f
6:48 8 13 mph 1013.3mb 55f 76f
6:42 8 15 mph 1013.3mb 55f 76f
6:36 7 14 mph 1013.3mb 55f 76f
6:30 9 15 mph 1013.2mb 55f 77f
6:24 11 18 mph 1013.1mb 55f 77f
6:18 8 17 mph 1013.1mb 55f 77f
6:12 9 16 mph 1013.1mb 55f 77f
6:06 9 16 mph 1013mb 55f 77f
6:00 9 14 mph 1012.9mb 55f 78f
5:54 13 15 mph 1012.9mb 55f 77f
5:48 8 18 mph 1012.9mb 55f 78f
5:42 6 16 mph 1012.8mb 55f 78f
5:36 9 15 mph 1012.8mb 55f 78f
5:30 9 16 mph 1012.7mb 55f 78f
5:24 10 15 mph 1012.6mb 55f 78f
5:18 6 15 mph 1012.6mb 55f 78f
5:12 8 15 mph 1012.6mb 55f 78f
5:06 10 16 mph 1012.6mb 55f 78f
5:00 8 16 mph 1012.7mb 55f 78f
4:54 9 17 mph 1012.7mb 55f 78f
4:48 10 17 mph 1012.6mb 55f 78f
4:42 11 14 mph 1012.6mb 55f 78f
4:36 9 15 mph 1012.7mb 55f 78f
4:30 9 16 mph 1012.8mb 55f 78f
4:24 8 14 mph 1012.8mb 55f 78f
4:18 11 18 mph 1012.8mb 55f 78f
4:12 9 16 mph 1012.7mb 56f 78f
4:06 11 16 mph 1012.7mb 56f 77f
4:00 14 21 mph 1012.5mb 56f 77f
3:54 16 20 mph 1012.5mb 56f 78f
3:48 9 17 mph 1012.5mb 56f 78f
3:42 14 18 mph 1012.5mb 57f 78f
3:36 15 23 mph 1012.5mb 57f 78f
3:30 16 23 mph 1012.5mb 57f 78f
3:24 14 20 mph 1012.5mb 58f 78f
3:18 14 20 mph 1012.6mb 58f 78f
3:12 14 24 mph 1012.6mb 59f 79f
3:06 11 21 mph 1012.6mb 60f 79f
3:00 13 24 mph 1012.7mb 62f 79f
2:54 15 22 mph 1012.7mb 63f 79f
2:48 11 18 mph 1012.6mb 64f 80f
2:42 13 20 mph 1012.7mb 64f 80f
2:36 9 20 mph 1012.7mb 64f 80f
2:30 11 22 mph 1012.6mb 64f 79f
2:24 13 25 mph 1012.7mb 64f 80f
2:18 14 17 mph 1012.5mb 64f 80f
2:12 11 16 mph 1012.5mb 63f 80f
2:06 11 26 mph 1012.5mb 63f 80f
2:00 9 18 mph 1012.5mb 63f 81f
1:54 13 16 mph 1012.6mb 63f 80f
1:48 16 20 mph 1012.5mb 63f 80f
1:42 8 21 mph 1012.5mb 63f 80f
1:36 11 17 mph 1012.5mb 63f 80f
1:30 7 13 mph 1012.6mb 63f 80f
1:24 6 11 mph 1012.5mb 63f 80f
1:18 8 15 mph 1012.6mb 63f 80f
1:12 10 13 mph 1012.5mb 63f 79f
1:06 10 16 mph 1012.5mb 63f 79f
1:00 11 16 mph 1012.5mb 63f 78f
12:54 10 14 mph 1012.5mb 63f 79f
12:48 5 15 mph 1012.4mb 63f 79f
12:42 14 18 mph 1012.4mb 63f 79f
12:36 11 18 mph 1012.4mb 63f 79f
12:30 9 15 mph 1012.4mb 62f 79f
12:24 10 16 mph 1012.4mb 62f 78f
12:18 13 17 mph 1012.4mb 62f 78f
12:12 7 11 mph 1012.6mb 62f 79f
12:06 8 11 mph 1012.6mb 62f 78f
12:00 10 16 mph 1012.5mb 62f 78f
11:54 13 17 mph 1012.6mb 62f 77f
11:48 14 20 mph 1012.6mb 62f 77f
11:42 11 16 mph 1012.6mb 62f 77f
11:36 14 20 mph 1012.7mb 62f 77f
11:30 8 13 mph 1012.8mb 62f 77f
11:24 13 17 mph 1012.9mb 61f 77f
11:18 10 17 mph 1012.9mb 61f 77f
11:12 13 17 mph 1012.9mb 61f 76f
11:06 15 22 mph 1012.9mb 61f 76f
11:00 16 22 mph 1012.8mb 61f 76f
10:54 14 17 mph 1012.8mb 61f 76f
10:48 14 20 mph 1012.8mb 61f 76f
10:42 15 20 mph 1012.8mb 61f 76f
10:36 11 18 mph 1012.8mb 60f 76f
10:30 14 22 mph 1012.7mb 60f 76f
10:24 11 20 mph 1012.7mb 60f 76f
10:18 15 22 mph 1012.7mb 60f 75f
10:12 20 23 mph 1012.6mb 60f 75f
10:06 11 15 mph 1012.6mb 60f 76f
10:00 11 15 mph 1012.6mb 60f 75f
9:54 13 17 mph 1012.6mb 60f 75f
9:48 15 20 mph 1012.6mb 60f 74f
9:42 14 20 mph 1012.6mb 60f 74f
9:36 9 15 mph 1012.7mb 60f 74f
9:30 13 17 mph 1012.6mb 60f 74f
9:24 14 17 mph 1012.5mb 60f 73f
9:18 13 20 mph 1012.6mb 60f 73f
9:12 16 20 mph 1012.4mb 60f 73f
9:06 13 18 mph 1012.4mb 60f 73f
9:00 11 14 mph 1012.4mb 60f 73f
8:54 11 16 mph 1012.3mb 59f 72f
8:48 13 16 mph 1012.4mb 59f 72f
8:42 14 20 mph 1012.3mb 59f 72f
8:36 11 15 mph 1012.3mb 59f 72f
8:30 14 15 mph 1012.2mb 59f 71f
8:24 9 14 mph 1012.3mb 59f 71f
8:18 7 11 mph 1012.4mb 59f 71f
8:12 10 13 mph 1012.4mb 59f 71f
8:06 9 11 mph 1012.4mb 59f 70f
8:00 7 10 mph 1012.4mb 59f 70f
7:54 6 9 mph 1012.3mb 59f 70f
7:48 7 10 mph 1012.3mb 59f 69f
7:42 7 10 mph 1012.4mb 59f 69f
7:36 7 11 mph 1012.4mb 59f 68f
7:30 8 10 mph 1012.4mb 59f 68f
7:24 5 9 mph 1012.3mb 59f 67f
7:18 3 6 mph 1012.4mb 59f 67f
7:12 1 3 mph 1012.2mb 59f 66f
7:06 1 5 mph 1012.2mb 59f 65f
7:00 2 3 mph 1012.3mb 59f 63f
6:54 3 3 mph 1012.1mb 59f 63f
6:48 2 2 mph 1012mb 59f 62f
6:42 1 2 mph 1012mb 59f 62f
6:36  -  1 mph 1011.9mb 59f 61f
6:30 1 2 mph 1011.8mb 59f 61f
6:24  -  1 mph 1011.8mb 59f 61f
6:18 1 3 mph 1011.8mb 59f 61f
6:12 2 3 mph 1011.8mb 59f 61f
6:06 3 3 mph 1011.7mb 59f 61f
6:00 1 2 mph 1011.6mb 59f 61f
5:54 2 2 mph 1011.6mb 59f 61f
5:48  -  1 mph 1011.6mb 59f 61f
5:42  -  2 mph 1011.4mb 59f 60f
5:36 2 2 mph 1011.3mb 59f 61f
5:30  -  2 mph 1011.4mb 59f 60f
5:24 1 3 mph 1011.3mb 59f 61f
5:18 1 1 mph 1011.3mb 59f 61f
5:12  -  2 mph 1011.2mb 59f 61f
5:06 2 3 mph 1011.1mb 59f 61f
5:00 3 3 mph 1011.1mb 59f 61f
4:54 2 3 mph 1010.9mb 59f 62f
4:48 1 2 mph 1010.9mb 59f 62f
4:42 2 2 mph 1010.9mb 59f 61f
4:36  -  2 mph 1011mb 59f 61f
4:30 2 2 mph 1011.1mb 59f 61f
4:24 2 2 mph 1011mb 59f 61f
4:18 1 2 mph 1010.9mb 59f 61f
4:12 2 2 mph 1010.8mb 59f 61f
4:06 2 3 mph 1010.9mb 59f 61f
4:00 3 5 mph 1010.9mb 59f 61f
3:54 2 2 mph 1010.9mb 59f 61f
3:48 2 3 mph 1010.9mb 59f 62f
3:42 3 3 mph 1010.8mb 60f 61f
3:36 1 2 mph 1010.8mb 60f 63f
3:30 2 3 mph 1010.6mb 60f 64f
3:24 2 3 mph 1010.5mb 59f 64f
3:18 1 3 mph 1010.5mb 59f 64f
3:12 2 3 mph 1010.5mb 60f 64f
3:06 2 3 mph 1010.6mb 60f 64f
3:00 3 3 mph 1010.6mb 62f 64f
2:54 2 3 mph 1010.7mb 63f 64f
2:48 3 6 mph 1010.5mb 63f 66f
2:42 5 6 mph 1010.5mb 64f 65f
2:36 6 7 mph 1010.5mb 64f 65f
2:30 5 6 mph 1010.5mb 64f 65f
2:24 5 5 mph 1010.3mb 64f 65f
2:18 5 6 mph 1010.3mb 64f 64f
2:12 3 5 mph 1010.3mb 64f 64f
2:06 3 5 mph 1010.4mb 63f 64f
2:00 6 6 mph 1010.4mb 63f 64f
1:54 6 6 mph 1010.4mb 63f 64f
1:48 6 7 mph 1010.4mb 63f 65f
1:42 7 8 mph 1010.3mb 63f 65f
1:36 7 8 mph 1010.2mb 63f 65f
1:30 6 8 mph 1010.2mb 63f 66f
1:24 7 8 mph 1010.3mb 63f 66f
1:18 6 7 mph 1010.2mb 63f 66f
1:12 6 7 mph 1010.2mb 63f 67f
1:06 5 6 mph 1010.3mb 63f 67f
1:00 5 7 mph 1010.3mb 63f 68f
12:54 6 8 mph 1010.5mb 63f 68f
12:48 6 9 mph 1010.5mb 63f 68f
12:42 5 8 mph 1010.6mb 63f 68f
12:36 6 8 mph 1010.6mb 63f 68f
12:30 6 8 mph 1010.6mb 63f 68f
12:24 6 7 mph 1010.5mb 63f 68f
12:18 5 6 mph 1010.6mb 63f 69f
12:12 2 5 mph 1010.5mb 63f 69f
12:06 5 7 mph 1010.5mb 63f 69f
12:00 6 8 mph 1010.5mb 63f 69f
mar 08/15 11:54 6 10 mph 1010.4mb 63f 69f
11:48 6 10 mph 1010.5mb 63f 69f
11:42 7 10 mph 1010.6mb 63f 69f
11:36 6 11 mph 1010.7mb 63f 70f
11:30  -  mph 1010.8mb 63f 70f
11:24  -  mph 1010.8mb 63f 70f
11:18 6 8 mph 1010.9mb 63f 70f
11:12 6 10 mph 1011mb 63f 70f
11:06 6 10 mph 1010.9mb 62f 70f
11:00 7 9 mph 1010.8mb 62f 70f
10:54 6 8 mph 1010.8mb 62f 69f
10:48 5 6 mph 1010.8mb 62f 69f
10:42 3 8 mph 1010.7mb 62f 69f
10:36 9 11 mph 1010.6mb 62f 69f
10:30 8 14 mph 1010.5mb 62f 69f
10:24 8 13 mph 1010.5mb 62f 69f
10:18 7 8 mph 1010.5mb 62f 67f
10:12 6 6 mph 1010.7mb 62f 67f
10:06 5 6 mph 1010.9mb 61f 67f
10:00 3 6 mph 1011.1mb 61f 66f
9:54 2 3 mph 1011.1mb 61f 67f
9:48 3 5 mph 1011.1mb 61f 68f
9:42 3 6 mph 1011mb 61f 67f
9:36 5 7 mph 1011.1mb 61f 67f
9:30 5 6 mph 1011.1mb 61f 67f
9:24 5 8 mph 1011.1mb 61f 67f
9:18 6 7 mph 1011mb 61f 66f
9:12 5 6 mph 1011mb 61f 66f
9:06 3 5 mph 1010.9mb 61f 65f
9:00 1 1 mph 1010.8mb 61f 65f
8:54  -  0 mph 1010.8mb 61f 65f
8:48  -  1 mph 1010.8mb 61f 65f
8:42 1 2 mph 1010.7mb 61f 65f
8:36 2 2 mph 1010.7mb 61f 65f
8:30 1 1 mph 1010.7mb 61f 65f
8:24 1 3 mph 1010.8mb 61f 65f
8:18 2 3 mph 1010.8mb 61f 65f
8:12 3 3 mph 1010.8mb 61f 65f
8:06 3 3 mph 1010.7mb 60f 66f
8:00 3 6 mph 1010.7mb 60f 65f
7:54 3 6 mph 1010.7mb 60f 65f
7:48 5 8 mph 1010.7mb 60f 66f
7:42 3 7 mph 1010.6mb 60f 66f
7:36 7 11 mph 1010.7mb 60f 65f
7:30 10 14 mph 1010.7mb 60f 66f
7:24 13 14 mph 1010.7mb 60f 66f
7:18 11 14 mph 1010.8mb 60f 66f
7:12 11 13 mph 1010.9mb 60f 66f
7:06 11 13 mph 1011mb 60f 66f
7:00 11 13 mph 1011mb 60f 67f
6:54 6 9 mph 1011.1mb 60f 67f
6:48 9 11 mph 1011.1mb 60f 67f
6:42 11 13 mph 1011.1mb 60f 67f
6:36 11 14 mph 1011mb 60f 68f
6:30 13 14 mph 1011.1mb 60f 68f
6:24 11 13 mph 1011mb 60f 67f
6:18 11 13 mph 1011mb 60f 66f
6:12 10 13 mph 1011mb 60f 67f
6:06 11 14 mph 1011mb 60f 67f
6:00 11 14 mph 1011.1mb 60f 67f
5:54 11 14 mph 1011.1mb 60f 66f
5:48 13 15 mph 1011mb 60f 66f
5:42 13 15 mph 1011mb 60f 66f
5:36 13 15 mph 1011.1mb 60f 66f
5:30 14 16 mph 1011.1mb 60f 66f
5:24 14 17 mph 1011.1mb 60f 66f
5:18 11 14 mph 1011mb 60f 66f
5:12 10 11 mph 1011.1mb 60f 66f
5:06 8 10 mph 1011.3mb 60f 66f
5:00 9 10 mph 1011.3mb 60f 66f
4:54 9 10 mph 1011.3mb 59f 66f
4:48 9 13 mph 1011.3mb 60f 66f
4:42 11 14 mph 1011.3mb 60f 66f
4:36 13 16 mph 1011.3mb 59f 67f
4:30 14 16 mph 1011.1mb 59f 66f
4:24 13 14 mph 1011.2mb 59f 67f
4:18 14 16 mph 1011.3mb 60f 66f
4:12 14 16 mph 1011.4mb 60f 66f
4:06 14 16 mph 1011.8mb 60f 66f
4:00 11 15 mph 1011.7mb 60f 66f
3:54 14 16 mph 1011.8mb 60f 67f
3:48 14 15 mph 1011.9mb 60f 67f
3:42 14 17 mph 1011.8mb 60f 67f
3:36 16 17 mph 1011.9mb 60f 66f
3:30 14 17 mph 1012mb 60f 66f
3:24 14 16 mph 1012.1mb 60f 66f
3:18 14 17 mph 1012.2mb 60f 67f
3:12 13 18 mph 1012.1mb 60f 66f
3:06 15 18 mph 1012.2mb 60f 66f
3:00 15 18 mph 1012.3mb 60f 66f
2:54 15 17 mph 1012.1mb 60f 66f
2:48 14 17 mph 1012.2mb 60f 67f
2:42 14 15 mph 1012.1mb 60f 67f
2:36 13 16 mph 1012.3mb 60f 66f
2:30 14 15 mph 1012.2mb 60f 66f
2:24 11 14 mph 1012.2mb 60f 66f
2:18 13 14 mph 1012.3mb 60f 66f
2:12 14 16 mph 1012.3mb 61f 66f
2:06 14 16 mph 1012.4mb 62f 66f
2:00 11 13 mph 1012.3mb 62f 66f
1:54 11 13 mph 1012.4mb 62f 66f
1:48 10 11 mph 1012.4mb 62f 66f
1:42 11 14 mph 1012.4mb 62f 66f
1:36 13 14 mph 1012.5mb 62f 66f
1:30 10 13 mph 1012.5mb 61f 66f
1:24 10 13 mph 1012.4mb 61f 67f
1:18 10 11 mph 1012.5mb 61f 66f
1:12 8 10 mph 1012.4mb 61f 67f
1:06 10 15 mph 1012.5mb 61f 67f
1:00 11 15 mph 1012.5mb 61f 67f
12:54 13 16 mph 1012.5mb 61f 67f
12:48 14 16 mph 1012.5mb 61f 67f
12:42 11 16 mph 1012.5mb 61f 68f
12:36 13 16 mph 1012.4mb 61f 68f
12:30 13 16 mph 1012.4mb 61f 68f
12:24 14 16 mph 1012.5mb 61f 68f
12:18 11 15 mph 1012.6mb - 67f
12:12 13 14 mph 1012.6mb - 67f
12:06 11 14 mph 1012.7mb - 67f
12:00 11 15 mph 1012.8mb 61f 67f
11:54 10 14 mph 1012.8mb 61f 68f
11:48 10 13 mph 1012.8mb 61f 69f
11:42 10 13 mph 1013mb 61f 68f
11:36 9 13 mph 1013mb 61f 67f
11:30 11 13 mph 1013mb 61f 66f
11:24 9 11 mph 1013.1mb 61f 66f
11:18 8 11 mph 1013.1mb 61f 66f
11:12 8 10 mph 1013.2mb 61f 66f
11:06 8 10 mph 1013.2mb 61f 66f
11:00 8 10 mph 1013.2mb 60f 67f
10:54 8 9 mph 1013.2mb 60f 67f
10:48 8 9 mph 1013.2mb 60f 67f
10:42 7 9 mph 1013.3mb 60f 67f
10:36 8 8 mph 1013.3mb 60f 68f
10:30 6 8 mph 1013.2mb 60f 69f
10:24 7 7 mph 1013.3mb 60f 69f
10:18 6 7 mph 1013.2mb 60f 69f
10:12 6 7 mph 1013.3mb 60f 68f
10:06 6 7 mph 1013.4mb 60f 67f
10:00 3 6 mph 1013.4mb 60f 66f
9:54 6 6 mph 1013.5mb 59f 67f
9:48 2 3 mph 1013.5mb 59f 68f
9:42 2 2 mph 1013.5mb 59f 68f
9:36 1 3 mph 1013.6mb 59f 68f